createdAt,value
2018-04-28T00:02:14.529Z,99323
2018-04-28T00:04:43.339Z,99324
2018-04-28T00:07:12.169Z,99325
2018-04-28T00:09:40.250Z,99314
2018-04-28T00:12:08.316Z,99326
2018-04-28T00:14:37.128Z,99322
2018-04-28T00:17:08.172Z,99322
2018-04-28T00:19:41.380Z,99318
2018-04-28T00:22:18.000Z,99318
2018-04-28T00:24:52.547Z,99315
2018-04-28T00:27:40.293Z,99319
2018-04-28T00:33:23.320Z,99330
2018-04-28T00:38:58.413Z,99337
2018-04-28T00:41:35.781Z,99336
2018-04-28T00:44:27.451Z,99335
2018-04-28T00:46:57.950Z,99331
2018-04-28T00:49:29.515Z,99343
2018-04-28T00:51:58.884Z,99335
2018-04-28T00:58:18.643Z,99335
2018-04-28T01:01:01.515Z,99334
2018-04-28T01:03:37.172Z,99335
2018-04-28T01:06:05.214Z,99342
2018-04-28T01:08:33.278Z,99344
2018-04-28T01:11:26.955Z,99335
2018-04-28T01:13:57.223Z,99336
2018-04-28T01:16:28.140Z,99333
2018-04-28T01:19:17.688Z,99342
2018-04-28T01:21:45.727Z,99343
2018-04-28T01:24:19.979Z,99339
2018-04-28T01:27:08.764Z,99344
2018-04-28T01:29:48.804Z,99347
2018-04-28T01:32:19.244Z,99349
2018-04-28T01:35:00.710Z,99353
2018-04-28T01:37:41.807Z,99367
2018-04-28T01:40:12.457Z,99362
2018-04-28T01:45:57.703Z,99369
2018-04-28T01:48:27.146Z,99364
2018-04-28T01:57:44.414Z,99372
2018-04-28T02:00:14.073Z,99371
2018-04-28T02:02:44.779Z,99373
2018-04-28T02:05:23.182Z,99373
2018-04-28T02:07:51.223Z,99377
2018-04-28T02:10:26.183Z,99377
2018-04-28T02:13:14.895Z,99385
2018-04-28T02:15:53.426Z,99392
2018-04-28T02:21:29.219Z,99402
2018-04-28T02:27:53.071Z,99412
2018-04-28T02:30:22.673Z,99418
2018-04-28T02:32:53.783Z,99416
2018-04-28T02:38:35.675Z,99422
2018-04-28T02:44:06.281Z,99423
2018-04-28T02:46:44.336Z,99434
2018-04-28T02:49:22.883Z,99437
2018-04-28T02:51:59.415Z,99451
2018-04-28T02:54:35.723Z,99454
2018-04-28T02:57:12.564Z,99456
2018-04-28T02:59:59.900Z,99457
2018-04-28T03:02:32.534Z,99461
2018-04-28T03:05:11.315Z,99468
2018-04-28T03:07:49.997Z,99471
2018-04-28T03:10:28.487Z,99469
2018-04-28T03:12:56.528Z,99471
2018-04-28T03:15:24.609Z,99466
2018-04-28T03:18:01.299Z,99470
2018-04-28T03:20:36.133Z,99469
2018-04-28T03:23:20.509Z,99477
2018-04-28T03:25:48.591Z,99476
2018-04-28T03:28:28.935Z,99470
2018-04-28T03:31:03.272Z,99476
2018-04-28T03:33:38.786Z,99477
2018-04-28T03:36:29.367Z,99468
2018-04-28T03:39:01.807Z,99471
2018-04-28T03:41:31.122Z,99483
2018-04-28T03:50:26.932Z,99493
2018-04-28T03:53:07.078Z,99500
2018-04-28T03:55:35.851Z,99501
2018-04-28T03:58:21.858Z,99505
2018-04-28T04:01:07.888Z,99507
2018-04-28T04:03:41.810Z,99503
2018-04-28T04:06:12.688Z,99503
2018-04-28T04:08:45.850Z,99507
2018-04-28T04:14:54.123Z,99524
2018-04-28T04:21:08.131Z,99534
2018-04-28T04:23:54.027Z,99540
2018-04-28T04:29:38.794Z,99542
2018-04-28T04:32:24.956Z,99545
2018-04-28T04:35:00.707Z,99547
2018-04-28T04:37:38.697Z,99540
2018-04-28T04:40:18.522Z,99549
2018-04-28T04:42:59.110Z,99549
2018-04-28T04:45:39.912Z,99546
2018-04-28T04:54:54.292Z,99555
2018-04-28T04:57:38.925Z,99563
2018-04-28T05:03:37.517Z,99580
2018-04-28T05:06:17.738Z,99575
2018-04-28T05:08:59.481Z,99583
2018-04-28T05:11:42.255Z,99584
2018-04-28T05:17:40.754Z,99592
2018-04-28T05:20:26.508Z,99592
2018-04-28T05:23:13.051Z,99592
2018-04-28T05:29:21.060Z,99601
2018-04-28T05:32:16.460Z,99604
2018-04-28T05:34:56.871Z,99599
2018-04-28T05:37:37.604Z,99601
2018-04-28T05:44:14.899Z,99605
2018-04-28T05:46:55.528Z,99599
2018-04-28T05:49:50.159Z,99597
2018-04-28T05:52:47.996Z,99602
2018-04-28T05:55:29.849Z,99600
2018-04-28T06:01:30.615Z,99602
2018-04-28T06:07:11.958Z,99610
2018-04-28T06:10:01.265Z,99609
2018-04-28T06:16:05.242Z,99612
2018-04-28T06:18:55.463Z,99616
2018-04-28T06:21:23.523Z,99617
2018-04-28T06:23:51.567Z,99617
2018-04-28T06:26:19.620Z,99622
2018-04-28T06:28:47.668Z,99619
2018-04-28T06:31:15.714Z,99621
2018-04-28T06:33:43.759Z,99626
2018-04-28T06:36:11.814Z,99630
2018-04-28T06:38:39.863Z,99636
2018-04-28T06:41:07.998Z,99635
2018-04-28T06:43:35.963Z,99635
2018-04-28T06:46:04.019Z,99639
2018-04-28T06:48:32.060Z,99632
2018-04-28T06:51:00.169Z,99632
2018-04-28T06:53:28.923Z,99635
2018-04-28T06:55:56.974Z,99628
2018-04-28T06:58:25.792Z,99626
2018-04-28T07:00:54.610Z,99622
2018-04-28T07:03:22.651Z,99629
2018-04-28T07:05:50.708Z,99627
2018-04-28T07:08:18.756Z,99635
2018-04-28T07:10:47.617Z,99626
2018-04-28T07:13:15.620Z,99626
2018-04-28T07:15:43.677Z,99631
2018-04-28T07:18:11.726Z,99623
2018-04-28T07:20:39.779Z,99628
2018-04-28T07:23:08.591Z,99627
2018-04-28T07:25:37.422Z,99621
2018-04-28T07:28:05.459Z,99621
2018-04-28T07:30:33.511Z,99625
2018-04-28T07:33:01.606Z,99617
2018-04-28T07:35:29.667Z,99619
2018-04-28T07:37:57.706Z,99630
2018-04-28T07:40:26.530Z,99623
2018-04-28T07:42:54.579Z,99618
2018-04-28T07:45:22.629Z,99625
2018-04-28T07:47:50.674Z,99629
2018-04-28T07:50:19.486Z,99624
2018-04-28T07:52:47.535Z,99630
2018-04-28T07:55:15.584Z,99628
2018-04-28T07:57:43.639Z,99613
2018-04-28T08:00:11.678Z,99610
2018-04-28T08:02:39.739Z,99601
2018-04-28T08:05:07.782Z,99595
2018-04-28T08:07:36.707Z,99591
2018-04-28T08:10:04.747Z,99590
2018-04-28T08:12:32.799Z,99596
2018-04-28T08:15:00.849Z,99603
2018-04-28T08:17:28.898Z,99601
2018-04-28T08:19:56.947Z,99603
2018-04-28T08:22:25.003Z,99609
2018-04-28T08:24:53.067Z,99608
2018-04-28T08:27:21.882Z,99606
2018-04-28T08:29:50.727Z,99605
2018-04-28T08:32:18.771Z,99614
2018-04-28T08:34:46.814Z,99601
2018-04-28T08:37:15.073Z,99604
2018-04-28T08:39:43.839Z,99610
2018-04-28T08:42:12.647Z,99607
2018-04-28T08:44:40.691Z,99608
2018-04-28T08:47:08.747Z,99611
2018-04-28T08:49:36.790Z,99605
2018-04-28T08:52:05.614Z,99607
2018-04-28T08:54:33.659Z,99598
2018-04-28T08:57:01.711Z,99604
2018-04-28T09:02:38.878Z,99604
2018-04-28T09:05:06.926Z,99595
2018-04-28T09:07:38.716Z,99591
2018-04-28T09:10:06.758Z,99605
2018-04-28T09:12:34.807Z,99597
2018-04-28T09:15:03.010Z,99582
2018-04-28T09:17:31.818Z,99588
2018-04-28T09:20:00.630Z,99591
2018-04-28T09:22:28.679Z,99584
2018-04-28T09:24:56.723Z,99571
2018-04-28T09:27:24.779Z,99577
2018-04-28T09:29:52.873Z,99575
2018-04-28T09:32:20.918Z,99559
2018-04-28T09:34:48.963Z,99565
2018-04-28T09:37:17.782Z,99561
2018-04-28T09:39:45.828Z,99565
2018-04-28T09:42:13.912Z,99568
2018-04-28T09:44:41.956Z,99559
2018-04-28T09:47:10.771Z,99573
2018-04-28T09:49:39.584Z,99571
2018-04-28T09:52:08.394Z,99568
2018-04-28T09:54:36.434Z,99569
2018-04-28T09:57:04.516Z,99569
2018-04-28T09:59:32.559Z,99577
2018-04-28T10:05:00.856Z,99571
2018-04-28T10:07:29.671Z,99565
2018-04-28T10:09:57.714Z,99562
2018-04-28T10:12:25.768Z,99555
2018-04-28T10:14:53.815Z,99564
2018-04-28T10:17:22.619Z,99565
2018-04-28T10:19:51.445Z,99553
2018-04-28T10:22:19.490Z,99548
2018-04-28T10:24:47.611Z,99549
2018-04-28T10:27:15.843Z,99541
2018-04-28T10:29:43.908Z,99540
2018-04-28T10:32:11.950Z,99544
2018-04-28T10:34:40.837Z,99537
2018-04-28T10:37:09.647Z,99523
2018-04-28T10:39:38.462Z,99518
2018-04-28T10:42:06.502Z,99527
2018-04-28T10:44:34.563Z,99528
2018-04-28T10:47:02.603Z,99517
2018-04-28T10:49:31.432Z,99514
2018-04-28T10:51:59.470Z,99509
2018-04-28T10:54:27.521Z,99523
2018-04-28T10:56:55.579Z,99522
2018-04-28T10:59:23.628Z,99513
2018-04-28T11:01:51.679Z,99511
2018-04-28T11:04:19.722Z,99514
2018-04-28T11:06:47.785Z,99506
2018-04-28T11:09:15.836Z,99511
2018-04-28T11:11:44.601Z,99506
2018-04-28T11:14:12.646Z,99515
2018-04-28T11:16:40.688Z,99516
2018-04-28T11:19:08.730Z,99509
2018-04-28T11:21:37.539Z,99503
2018-04-28T11:24:06.372Z,99504
2018-04-28T11:26:34.406Z,99512
2018-04-28T11:29:02.458Z,99517
2018-04-28T11:31:30.814Z,99511
2018-04-28T11:33:58.883Z,99495
2018-04-28T11:36:26.948Z,99500
2018-04-28T11:38:55.001Z,99497
2018-04-28T11:41:23.056Z,99509
2018-04-28T11:43:52.020Z,99505
2018-04-28T11:46:20.055Z,99496
2018-04-28T11:48:48.111Z,99483
2018-04-28T11:51:16.979Z,99486
2018-04-28T11:53:45.039Z,99498
2018-04-28T11:56:13.075Z,99491
2018-04-28T11:58:41.128Z,99486
2018-04-28T12:01:09.166Z,99481
2018-04-28T12:03:37.979Z,99472
2018-04-28T12:06:06.027Z,99466
2018-04-28T12:08:35.587Z,99470
2018-04-28T12:11:03.639Z,99468
2018-04-28T12:13:31.749Z,99473
2018-04-28T12:16:00.567Z,99463
2018-04-28T12:18:28.652Z,99464
2018-04-28T12:20:56.782Z,99459
2018-04-28T12:23:25.535Z,99466
2018-04-28T12:25:53.629Z,99460
2018-04-28T12:28:21.676Z,99455
2018-04-28T12:30:50.495Z,99444
2018-04-28T12:33:19.424Z,99448
2018-04-28T12:35:47.472Z,99444
2018-04-28T12:38:16.300Z,99440
2018-04-28T12:40:44.347Z,99437
2018-04-28T12:43:12.398Z,99437
2018-04-28T12:45:40.451Z,99431
2018-04-28T12:48:08.492Z,99422
2018-04-28T12:50:36.580Z,99417
2018-04-28T12:53:04.589Z,99411
2018-04-28T12:55:33.403Z,99404
2018-04-28T12:58:01.517Z,99395
2018-04-28T13:00:29.567Z,99385
2018-04-28T13:02:57.612Z,99383
2018-04-28T13:05:25.665Z,99388
2018-04-28T13:07:53.708Z,99382
2018-04-28T13:10:22.520Z,99383
2018-04-28T13:12:50.558Z,99395
2018-04-28T13:15:18.719Z,99390
2018-04-28T13:17:46.759Z,99394
2018-04-28T13:20:15.585Z,99403
2018-04-28T13:22:43.721Z,99400
2018-04-28T13:25:12.459Z,99393
2018-04-28T13:27:41.271Z,99391
2018-04-28T13:30:09.331Z,99375
2018-04-28T13:32:38.140Z,99369
2018-04-28T13:35:06.970Z,99374
2018-04-28T13:37:34.998Z,99368
2018-04-28T13:40:03.060Z,99364
2018-04-28T13:42:31.099Z,99358
2018-04-28T13:44:59.908Z,99353
2018-04-28T13:47:27.954Z,99348
2018-04-28T13:49:56.004Z,99353
2018-04-28T13:52:24.051Z,99342
2018-04-28T13:54:52.885Z,99349
2018-04-28T13:57:20.923Z,99347
2018-04-28T13:59:48.975Z,99341
2018-04-28T14:02:17.025Z,99344
2018-04-28T14:04:45.113Z,99346
2018-04-28T14:07:13.158Z,99336
2018-04-28T14:09:41.234Z,99337
2018-04-28T14:12:09.247Z,99331
2018-04-28T14:14:38.069Z,99335
2018-04-28T14:17:06.155Z,99329
2018-04-28T14:19:34.205Z,99323
2018-04-28T14:22:03.039Z,99321
2018-04-28T14:24:31.831Z,99324
2018-04-28T14:26:59.902Z,99324
2018-04-28T14:29:27.921Z,99321
2018-04-28T14:31:55.971Z,99315
2018-04-28T14:34:24.780Z,99315
2018-04-28T14:36:53.599Z,99313
2018-04-28T14:39:21.860Z,99319
2018-04-28T14:41:49.851Z,99319
2018-04-28T14:44:18.659Z,99317
2018-04-28T14:46:47.476Z,99321
2018-04-28T14:49:15.514Z,99320
2018-04-28T14:51:44.293Z,99320
2018-04-28T14:54:12.319Z,99319
2018-04-28T14:56:41.145Z,99319
2018-04-28T14:59:09.179Z,99313
2018-04-28T15:01:37.230Z,99322
2018-04-28T15:04:05.275Z,99312
2018-04-28T15:06:34.088Z,99311
2018-04-28T15:09:02.911Z,99314
2018-04-28T15:11:30.950Z,99317
2018-04-28T15:13:59.008Z,99309
2018-04-28T15:16:27.048Z,99309
2018-04-28T15:18:55.135Z,99309
2018-04-28T15:21:23.943Z,99306
2018-04-28T15:23:51.992Z,99309
2018-04-28T15:26:20.032Z,99311
2018-04-28T15:28:48.078Z,99313
2018-04-28T15:31:16.883Z,99313
2018-04-28T15:33:44.931Z,99310
2018-04-28T15:36:12.977Z,99311
2018-04-28T15:38:41.027Z,99310
2018-04-28T15:41:09.878Z,99311
2018-04-28T15:43:37.907Z,99311
2018-04-28T15:46:06.719Z,99307
2018-04-28T15:48:35.551Z,99309
2018-04-28T15:51:03.618Z,99305
2018-04-28T15:53:32.410Z,99310
2018-04-28T15:56:00.451Z,99310
2018-04-28T15:58:28.551Z,99303
2018-04-28T16:00:56.648Z,99302
2018-04-28T16:03:24.690Z,99299
2018-04-28T16:05:52.735Z,99303
2018-04-28T16:08:20.849Z,99303
2018-04-28T16:10:48.877Z,99305
2018-04-28T16:13:16.947Z,99312
2018-04-28T16:15:44.990Z,99315
2018-04-28T16:18:13.045Z,99317
2018-04-28T16:20:41.860Z,99320
2018-04-28T16:23:10.679Z,99312
2018-04-28T16:25:38.735Z,99313
2018-04-28T16:28:07.547Z,99306
2018-04-28T16:30:36.364Z,99297
2018-04-28T16:33:04.455Z,99290
2018-04-28T16:35:32.506Z,99292
2018-04-28T16:38:01.315Z,99294
2018-04-28T16:40:30.130Z,99290
2018-04-28T16:42:58.206Z,99293
2018-04-28T16:45:27.024Z,99288
2018-04-28T16:47:55.068Z,99290
2018-04-28T16:50:23.887Z,99302
2018-04-28T16:52:52.697Z,99289
2018-04-28T16:55:21.518Z,99292
2018-04-28T16:57:49.652Z,99293
2018-04-28T17:00:17.684Z,99292
2018-04-28T17:02:45.727Z,99292
2018-04-28T17:05:13.788Z,99289
2018-04-28T17:07:41.823Z,99294
2018-04-28T17:10:10.683Z,99296
2018-04-28T17:12:38.727Z,99294
2018-04-28T17:15:06.780Z,99291
2018-04-28T17:17:53.550Z,99292
2018-04-28T17:20:21.598Z,99295
2018-04-28T17:22:50.407Z,99305
2018-04-28T17:25:18.801Z,99305
2018-04-28T17:27:46.834Z,99304
2018-04-28T17:30:14.895Z,99313
2018-04-28T17:32:42.940Z,99313
2018-04-28T17:35:11.751Z,99314
2018-04-28T17:37:40.561Z,99313
2018-04-28T17:40:08.603Z,99323
2018-04-28T17:42:36.743Z,99329
2018-04-28T17:45:04.790Z,99332
2018-04-28T17:47:32.832Z,99338
2018-04-28T17:50:00.886Z,99339
2018-04-28T17:52:28.914Z,99346
2018-04-28T17:54:56.966Z,99352
2018-04-28T17:57:25.231Z,99369
2018-04-28T17:59:54.054Z,99381
2018-04-28T18:02:22.094Z,99397
2018-04-28T18:04:51.659Z,99401
2018-04-28T18:07:19.757Z,99361
2018-04-28T18:09:47.764Z,99325
2018-04-28T18:12:15.803Z,99311
2018-04-28T18:14:43.852Z,99303
2018-04-28T18:17:11.891Z,99298
2018-04-28T18:19:39.960Z,99285
2018-04-28T18:22:08.001Z,99292
2018-04-28T18:24:36.043Z,99294
2018-04-28T18:27:04.093Z,99292
2018-04-28T18:29:32.921Z,99290
2018-04-28T18:32:00.971Z,99306
2018-04-28T18:34:29.780Z,99312
2018-04-28T18:36:58.591Z,99319
2018-04-28T18:39:27.509Z,99322
2018-04-28T18:41:55.568Z,99334
2018-04-28T18:44:24.411Z,99333
2018-04-28T18:46:52.500Z,99333
2018-04-28T18:49:20.551Z,99338
2018-04-28T18:51:49.418Z,99339
2018-04-28T18:54:17.407Z,99332
2018-04-28T18:56:45.463Z,99342
2018-04-28T18:59:13.507Z,99350
2018-04-28T19:01:42.344Z,99358
2018-04-28T19:04:10.382Z,99366
2018-04-28T19:06:39.204Z,99367
2018-04-28T19:09:08.006Z,99369
2018-04-28T19:11:36.055Z,99364
2018-04-28T19:14:04.924Z,99369
2018-04-28T19:16:33.708Z,99381
2018-04-28T19:19:01.746Z,99381
2018-04-28T19:21:29.795Z,99389
2018-04-28T19:23:57.835Z,99388
2018-04-28T19:26:26.695Z,99399
2018-04-28T19:28:54.738Z,99404
2018-04-28T19:31:22.815Z,99425
2018-04-28T19:33:51.623Z,99438
2018-04-28T19:36:19.710Z,99447
2018-04-28T19:38:48.619Z,99455
2018-04-28T19:41:19.119Z,99439
2018-04-28T19:43:47.151Z,99442
2018-04-28T19:46:15.207Z,99423
2018-04-28T19:48:44.085Z,99411
2018-04-28T19:51:12.860Z,99424
2018-04-28T19:53:40.905Z,99411
2018-04-28T19:56:09.731Z,99417
2018-04-28T19:58:37.775Z,99448
2018-04-28T20:01:05.818Z,99484
2018-04-28T20:03:33.867Z,99486
2018-04-28T20:06:02.682Z,99465
2018-04-28T20:08:30.720Z,99470
2018-04-28T20:15:48.015Z,99503
2018-04-28T20:18:16.062Z,99515
2018-04-28T20:20:44.104Z,99516
2018-04-28T20:23:30.835Z,99508
2018-04-28T20:25:59.644Z,99523
2018-04-28T20:28:28.657Z,99537
2018-04-28T20:30:56.694Z,99534
2018-04-28T20:33:24.751Z,99515
2018-04-28T20:35:52.888Z,99495
2018-04-28T20:38:20.856Z,99494
2018-04-28T20:40:48.899Z,99509
2018-04-28T20:43:16.954Z,99516
2018-04-28T20:45:44.991Z,99503
2018-04-28T20:48:13.040Z,99509
2018-04-28T20:50:41.087Z,99522
2018-04-28T20:53:09.919Z,99528
2018-04-28T20:55:37.971Z,99510
2018-04-28T20:58:06.787Z,99507
2018-04-28T21:00:35.595Z,99490
2018-04-28T21:03:03.647Z,99480
2018-04-28T21:05:31.691Z,99496
2018-04-28T21:07:59.747Z,99510
2018-04-28T21:10:27.796Z,99503
2018-04-28T21:12:55.847Z,99489
2018-04-28T21:15:23.895Z,99451
2018-04-28T21:17:51.950Z,99425
2018-04-28T21:20:20.000Z,99440
2018-04-28T21:22:48.061Z,99455
2018-04-28T21:25:16.107Z,99461
2018-04-28T21:27:44.956Z,99470
2018-04-28T21:30:13.048Z,99470
2018-04-28T21:32:41.222Z,99473
2018-04-28T21:35:09.271Z,99463
2018-04-28T21:37:37.407Z,99460
2018-04-28T21:40:05.443Z,99458
2018-04-28T21:42:33.502Z,99462
2018-04-28T21:45:01.552Z,99471
2018-04-28T21:47:29.823Z,99482
2018-04-28T21:49:57.878Z,99488
2018-04-28T21:52:25.927Z,99493
2018-04-28T21:54:53.971Z,99480
2018-04-28T21:57:22.787Z,99444
2018-04-28T21:59:50.826Z,99431
2018-04-28T22:02:18.878Z,99459
2018-04-28T22:04:46.927Z,99482
2018-04-28T22:07:15.744Z,99444
2018-04-28T22:09:43.827Z,99393
2018-04-28T22:12:11.878Z,99357
2018-04-28T22:14:39.935Z,99412
2018-04-28T22:17:07.971Z,99435
2018-04-28T22:19:36.019Z,99423
2018-04-28T22:22:04.831Z,99428
2018-04-28T22:24:32.941Z,99410
2018-04-28T22:27:00.936Z,99423
2018-04-28T22:29:28.991Z,99417
2018-04-28T22:31:57.798Z,99418
2018-04-28T22:34:26.626Z,99413
2018-04-28T22:36:54.659Z,99422
2018-04-28T22:39:22.709Z,99419
2018-04-28T22:41:50.748Z,99415
2018-04-28T22:44:19.572Z,99417
2018-04-28T22:46:47.615Z,99422
2018-04-28T22:49:15.663Z,99424
2018-04-28T22:51:44.019Z,99426
2018-04-28T22:54:12.999Z,99425
2018-04-28T22:56:41.040Z,99422
2018-04-28T22:59:09.091Z,99417
2018-04-28T23:01:37.907Z,99416
2018-04-28T23:04:05.950Z,99408
2018-04-28T23:06:33.997Z,99420
2018-04-28T23:09:02.039Z,99425
2018-04-28T23:11:30.936Z,99424
2018-04-28T23:13:58.991Z,99425
2018-04-28T23:16:27.027Z,99432
2018-04-28T23:18:55.127Z,99434
2018-04-28T23:21:23.167Z,99439
2018-04-28T23:23:51.980Z,99430
2018-04-28T23:26:20.794Z,99425
2018-04-28T23:28:49.614Z,99412
2018-04-28T23:31:17.819Z,99409
2018-04-28T23:33:45.875Z,99420
2018-04-28T23:36:14.684Z,99423
2018-04-28T23:38:42.984Z,99427
2018-04-28T23:41:11.031Z,99421
2018-04-28T23:43:39.847Z,99412
2018-04-28T23:46:08.663Z,99415
2018-04-28T23:48:36.714Z,99407
2018-04-28T23:51:04.762Z,99401
2018-04-28T23:53:32.803Z,99397
2018-04-28T23:56:01.639Z,99397
2018-04-28T23:58:29.715Z,99391
